createdAt,value
2019-02-28T00:00:37.201Z,92.60
2019-02-28T00:03:43.117Z,92.80
2019-02-28T00:06:47.917Z,92.70
2019-02-28T00:09:52.649Z,92.80
2019-02-28T00:12:57.074Z,92.70
2019-02-28T00:16:03.375Z,92.70
2019-02-28T00:19:07.664Z,92.70
2019-02-28T00:22:14.640Z,92.50
2019-02-28T00:25:18.549Z,92.50
2019-02-28T00:28:25.548Z,92.70
2019-02-28T00:31:29.546Z,92.50
2019-02-28T00:34:36.296Z,92.50
2019-02-28T00:37:40.156Z,92.60
2019-02-28T00:40:44.598Z,92.60
2019-02-28T00:43:49.288Z,92.30
2019-02-28T00:46:53.731Z,92.60
2019-02-28T00:49:58.156Z,92.70
2019-02-28T00:53:02.602Z,92.70
2019-02-28T00:56:07.398Z,92.80
2019-02-28T00:59:12.125Z,93.00
2019-02-28T01:02:17.685Z,93.00
2019-02-28T01:05:22.723Z,93.10
2019-02-28T01:08:27.459Z,92.80
2019-02-28T01:11:32.062Z,92.90
2019-02-28T01:14:36.674Z,93.00
2019-02-28T01:17:41.535Z,92.70
2019-02-28T01:20:49.953Z,93.00
2019-02-28T01:23:52.433Z,93.40
2019-02-28T01:26:56.869Z,93.40
2019-02-28T01:30:01.296Z,93.60
2019-02-28T01:33:05.740Z,93.70
2019-02-28T01:36:12.178Z,93.90
2019-02-28T01:39:16.906Z,93.90
2019-02-28T01:42:21.795Z,93.70
2019-02-28T01:45:26.567Z,93.70
2019-02-28T01:48:31.009Z,93.90
2019-02-28T01:51:36.699Z,93.90
2019-02-28T01:54:41.240Z,93.90
2019-02-28T01:57:45.692Z,93.90
2019-02-28T02:00:50.425Z,94.10
2019-02-28T02:03:55.158Z,94.10
2019-02-28T02:07:00.404Z,94.00
2019-02-28T02:10:10.765Z,94.30
2019-02-28T02:13:15.215Z,94.30
2019-02-28T02:16:19.653Z,94.10
2019-02-28T02:19:24.087Z,94.00
2019-02-28T02:22:28.522Z,94.10
2019-02-28T02:25:37.268Z,94.10
2019-02-28T02:28:39.130Z,94.10
2019-02-28T02:31:43.887Z,94.00
2019-02-28T02:34:48.615Z,94.30
2019-02-28T02:37:53.335Z,94.50
2019-02-28T02:41:00.567Z,94.50
2019-02-28T02:44:04.545Z,94.60
2019-02-28T02:47:08.970Z,94.50
2019-02-28T02:50:16.891Z,94.50
2019-02-28T02:53:21.331Z,94.60
2019-02-28T02:56:26.019Z,94.50
2019-02-28T02:59:37.238Z,94.70
2019-02-28T03:02:36.629Z,94.90
2019-02-28T03:05:41.342Z,94.80
2019-02-28T03:08:45.794Z,95.00
2019-02-28T03:11:50.493Z,95.20
2019-02-28T03:14:55.063Z,94.90
2019-02-28T03:17:59.755Z,95.10
2019-02-28T03:21:04.500Z,95.30
2019-02-28T03:24:14.563Z,95.40
2019-02-28T03:27:19.204Z,95.40
2019-02-28T03:30:28.936Z,95.40
2019-02-28T03:33:29.214Z,95.40
2019-02-28T03:36:34.076Z,95.30
2019-02-28T03:39:38.524Z,95.50
2019-02-28T03:42:42.966Z,95.60
2019-02-28T03:45:47.413Z,95.90
2019-02-28T03:48:51.861Z,95.70
2019-02-28T03:51:56.294Z,95.60
2019-02-28T03:55:03.363Z,95.50
2019-02-28T03:58:07.252Z,95.40
2019-02-28T04:01:12.023Z,95.80
2019-02-28T04:04:16.751Z,95.60
2019-02-28T04:07:21.479Z,95.60
2019-02-28T04:10:25.931Z,95.70
2019-02-28T04:13:30.374Z,95.60
2019-02-28T04:16:34.808Z,95.90
2019-02-28T04:19:39.587Z,96.00
2019-02-28T04:22:44.016Z,96.00
2019-02-28T04:25:48.463Z,96.10
2019-02-28T04:28:54.699Z,96.20
2019-02-28T04:31:59.073Z,96.00
2019-02-28T04:35:03.986Z,95.90
2019-02-28T04:38:08.643Z,96.20
2019-02-28T04:41:13.422Z,96.30
2019-02-28T04:44:18.232Z,96.00
2019-02-28T04:47:23.460Z,96.30
2019-02-28T04:50:31.264Z,96.30
2019-02-28T04:53:34.037Z,96.70
2019-02-28T04:56:38.712Z,96.50
2019-02-28T04:59:43.400Z,96.60
2019-02-28T05:02:47.833Z,96.50
2019-02-28T05:05:52.275Z,96.30
2019-02-28T05:08:56.703Z,96.50
2019-02-28T05:12:02.462Z,96.20
2019-02-28T05:15:10.836Z,96.40
2019-02-28T05:18:15.270Z,96.60
2019-02-28T05:21:20.283Z,96.80
2019-02-28T05:24:24.714Z,96.80
2019-02-28T05:27:34.942Z,96.90
2019-02-28T05:30:35.327Z,96.90
2019-02-28T05:33:41.889Z,96.90
2019-02-28T05:36:46.258Z,96.70
2019-02-28T05:39:50.685Z,96.80
2019-02-28T05:42:58.501Z,96.90
2019-02-28T05:46:01.590Z,96.90
2019-02-28T05:49:08.650Z,97.20
2019-02-28T05:52:12.770Z,97.20
2019-02-28T05:55:17.507Z,97.30
2019-02-28T05:58:21.952Z,97.60
2019-02-28T06:01:26.656Z,97.30
2019-02-28T06:04:31.091Z,96.90
2019-02-28T06:07:35.826Z,97.40
2019-02-28T06:10:40.274Z,97.70
2019-02-28T06:13:44.709Z,97.80
2019-02-28T06:16:49.150Z,97.80
2019-02-28T06:19:53.611Z,97.80
2019-02-28T06:22:58.166Z,97.60
2019-02-28T06:26:02.865Z,97.10
2019-02-28T06:29:07.630Z,96.50
2019-02-28T06:32:13.607Z,95.90
2019-02-28T06:35:20.357Z,94.80
2019-02-28T06:38:24.864Z,94.20
2019-02-28T06:41:29.301Z,93.40
2019-02-28T06:44:33.737Z,92.20
2019-02-28T06:47:39.097Z,91.10
2019-02-28T06:50:44.730Z,90.10
2019-02-28T06:53:49.986Z,86.70
2019-02-28T06:56:55.326Z,83.90
2019-02-28T06:59:59.914Z,81.60
2019-02-28T07:03:04.483Z,78.80
2019-02-28T07:06:08.886Z,75.40
2019-02-28T07:09:13.606Z,73.00
2019-02-28T07:12:18.063Z,74.90
2019-02-28T07:15:24.813Z,78.50
2019-02-28T07:18:28.742Z,83.20
2019-02-28T07:21:34.554Z,87.60
2019-02-28T07:24:39.109Z,90.20
2019-02-28T07:27:43.630Z,91.30
2019-02-28T07:30:50.298Z,92.40
2019-02-28T07:33:54.251Z,92.90
2019-02-28T07:36:58.700Z,93.40
2019-02-28T07:40:03.585Z,94.30
2019-02-28T07:43:12.030Z,94.90
2019-02-28T07:46:14.191Z,94.70
2019-02-28T07:49:18.630Z,94.80
2019-02-28T07:52:23.071Z,94.70
2019-02-28T07:55:30.507Z,94.70
2019-02-28T07:58:34.123Z,94.50
2019-02-28T08:01:38.555Z,94.00
2019-02-28T08:04:43.717Z,94.00
2019-02-28T08:07:52.069Z,93.70
2019-02-28T08:10:54.873Z,93.60
2019-02-28T08:13:59.606Z,94.40
2019-02-28T08:17:05.505Z,93.70
2019-02-28T08:20:10.602Z,92.90
2019-02-28T08:23:15.336Z,91.70
2019-02-28T08:26:19.799Z,91.10
2019-02-28T08:29:24.485Z,90.70
2019-02-28T08:32:28.918Z,90.40
2019-02-28T08:35:34.800Z,89.90
2019-02-28T08:38:39.537Z,89.90
2019-02-28T08:41:44.041Z,89.70
2019-02-28T08:44:48.485Z,88.70
2019-02-28T08:47:56.782Z,88.00
2019-02-28T08:50:59.797Z,86.60
2019-02-28T08:54:06.035Z,85.30
2019-02-28T08:57:10.562Z,84.10
2019-02-28T09:00:21.219Z,83.50
2019-02-28T09:03:27.233Z,83.30
2019-02-28T09:06:32.126Z,83.70
2019-02-28T09:09:36.950Z,83.70
2019-02-28T09:12:41.781Z,83.10
2019-02-28T09:15:46.621Z,83.90
2019-02-28T09:18:51.073Z,83.30
2019-02-28T09:21:55.517Z,84.30
2019-02-28T09:25:00.297Z,83.10
2019-02-28T09:28:04.813Z,82.80
2019-02-28T09:31:09.658Z,83.40
2019-02-28T09:34:14.116Z,83.30
2019-02-28T09:37:18.807Z,82.60
2019-02-28T09:40:25.641Z,83.50
2019-02-28T09:43:29.436Z,83.20
2019-02-28T09:46:34.236Z,81.70
2019-02-28T09:49:38.677Z,79.80
2019-02-28T09:52:43.197Z,77.70
2019-02-28T09:55:47.637Z,74.60
2019-02-28T09:58:52.460Z,74.20
2019-02-28T10:02:01.301Z,73.70
2019-02-28T10:05:06.595Z,70.20
2019-02-28T10:08:09.696Z,70.80
2019-02-28T10:11:14.170Z,68.90
2019-02-28T10:14:18.646Z,66.90
2019-02-28T10:17:25.861Z,64.40
2019-02-28T10:20:39.310Z,61.70
2019-02-28T10:23:43.742Z,59.60
2019-02-28T10:26:51.520Z,57.40
2019-02-28T10:29:54.690Z,59.30
2019-02-28T10:32:59.135Z,55.80
2019-02-28T10:36:03.584Z,55.20
2019-02-28T10:39:08.873Z,55.80
2019-02-28T10:42:14.209Z,56.20
2019-02-28T10:45:19.068Z,57.10
2019-02-28T10:48:23.579Z,56.70
2019-02-28T10:51:28.331Z,55.90
2019-02-28T10:54:32.781Z,57.50
2019-02-28T10:57:40.690Z,56.00
2019-02-28T11:00:45.630Z,54.70
2019-02-28T11:03:50.415Z,54.70
2019-02-28T11:06:54.870Z,54.00
2019-02-28T11:10:01.823Z,51.40
2019-02-28T11:13:12.821Z,51.90
2019-02-28T11:16:20.529Z,51.60
2019-02-28T11:19:23.695Z,50.80
2019-02-28T11:22:28.216Z,52.50
2019-02-28T11:25:35.532Z,51.40
2019-02-28T11:28:39.218Z,51.60
2019-02-28T11:31:43.670Z,50.30
2019-02-28T11:34:48.665Z,49.20
2019-02-28T11:37:53.883Z,48.60
2019-02-28T11:40:58.478Z,48.80
2019-02-28T11:44:03.177Z,48.30
2019-02-28T11:47:08.430Z,48.30
2019-02-28T11:50:13.879Z,48.50
2019-02-28T11:53:19.236Z,48.20
2019-02-28T11:56:25.580Z,49.00
2019-02-28T11:59:30.067Z,50.40
2019-02-28T12:02:34.528Z,50.60
2019-02-28T12:05:39.264Z,50.40
2019-02-28T12:08:45.112Z,49.80
2019-02-28T12:11:50.121Z,49.60
2019-02-28T12:14:54.576Z,50.80
2019-02-28T12:18:03.629Z,49.80
2019-02-28T12:21:05.494Z,50.10
2019-02-28T12:24:09.926Z,49.30
2019-02-28T12:27:14.379Z,48.90
2019-02-28T12:30:25.098Z,49.80
2019-02-28T12:33:28.871Z,49.10
2019-02-28T12:36:33.566Z,48.40
2019-02-28T12:39:38.368Z,46.40
2019-02-28T12:42:42.819Z,45.60
2019-02-28T12:45:47.905Z,45.40
2019-02-28T12:48:52.356Z,45.80
2019-02-28T12:51:57.081Z,46.50
2019-02-28T12:55:04.016Z,46.90
2019-02-28T12:58:07.989Z,46.50
2019-02-28T13:01:12.432Z,46.70
2019-02-28T13:04:17.140Z,47.20
2019-02-28T13:07:21.863Z,47.90
2019-02-28T13:10:27.923Z,48.30
2019-02-28T13:13:33.171Z,48.80
2019-02-28T13:16:37.616Z,48.60
2019-02-28T13:19:42.074Z,49.20
2019-02-28T13:22:46.860Z,49.20
2019-02-28T13:25:51.788Z,48.60
2019-02-28T13:28:57.446Z,48.20
2019-02-28T13:32:02.811Z,48.00
2019-02-28T13:35:14.082Z,48.90
2019-02-28T13:38:19.725Z,47.50
2019-02-28T13:41:26.764Z,47.50
2019-02-28T13:44:31.589Z,46.30
2019-02-28T13:47:37.202Z,44.20
2019-02-28T13:50:41.650Z,42.70
2019-02-28T13:53:46.178Z,43.10
2019-02-28T13:56:50.873Z,42.40
2019-02-28T13:59:55.605Z,42.80
2019-02-28T14:03:09.479Z,42.50
2019-02-28T14:06:18.740Z,42.30
2019-02-28T14:09:22.189Z,41.30
2019-02-28T14:12:26.140Z,42.60
2019-02-28T14:15:52.375Z,42.30
2019-02-28T14:18:56.852Z,42.20
2019-02-28T14:22:01.294Z,42.50
2019-02-28T14:25:09.183Z,42.40
2019-02-28T14:28:13.923Z,42.90
2019-02-28T14:31:18.367Z,42.80
2019-02-28T14:34:26.156Z,43.10
2019-02-28T14:37:29.021Z,43.90
2019-02-28T14:40:33.477Z,43.80
2019-02-28T14:43:37.932Z,43.50
2019-02-28T14:46:42.521Z,43.80
2019-02-28T14:49:46.986Z,44.90
2019-02-28T14:52:55.435Z,45.30
2019-02-28T14:55:59.928Z,46.20
2019-02-28T14:59:04.375Z,47.00
2019-02-28T15:02:08.834Z,47.70
2019-02-28T15:05:16.689Z,48.20
2019-02-28T15:08:22.191Z,48.70
2019-02-28T15:11:27.004Z,49.10
2019-02-28T15:14:31.465Z,49.90
2019-02-28T15:17:38.670Z,50.70
2019-02-28T15:20:42.427Z,51.60
2019-02-28T15:23:46.880Z,51.70
2019-02-28T15:26:51.325Z,52.30
2019-02-28T15:29:58.866Z,51.60
2019-02-28T15:33:02.595Z,50.90
2019-02-28T15:36:07.332Z,51.00
2019-02-28T15:39:12.037Z,52.80
2019-02-28T15:42:16.549Z,55.70
2019-02-28T15:45:21.010Z,57.80
2019-02-28T15:48:25.469Z,58.20
2019-02-28T15:51:30.333Z,58.70
2019-02-28T15:54:34.775Z,59.70
2019-02-28T15:57:39.812Z,60.40
2019-02-28T16:00:44.544Z,61.60
2019-02-28T16:03:51.286Z,63.00
2019-02-28T16:06:57.955Z,64.40
2019-02-28T16:10:02.007Z,65.70
2019-02-28T16:13:08.174Z,67.20
2019-02-28T16:16:12.626Z,68.40
2019-02-28T16:19:18.872Z,69.70
2019-02-28T16:22:23.244Z,71.60
2019-02-28T16:25:34.232Z,73.00
2019-02-28T16:28:39.535Z,73.90
2019-02-28T16:31:44.923Z,74.50
2019-02-28T16:34:49.435Z,75.00
2019-02-28T16:37:53.885Z,75.30
2019-02-28T16:41:00.825Z,74.70
2019-02-28T16:44:04.801Z,75.00
2019-02-28T16:47:09.567Z,75.20
2019-02-28T16:50:15.379Z,75.80
2019-02-28T16:53:20.835Z,76.50
2019-02-28T16:56:25.667Z,76.80
2019-02-28T16:59:31.544Z,77.00
2019-02-28T17:02:36.869Z,77.00
2019-02-28T17:05:41.321Z,77.60
2019-02-28T17:08:47.668Z,78.20
2019-02-28T17:11:54.029Z,79.00
2019-02-28T17:14:58.498Z,78.80
2019-02-28T17:18:04.934Z,79.10
2019-02-28T17:21:09.390Z,79.20
2019-02-28T17:24:13.845Z,79.00
2019-02-28T17:27:20.247Z,78.10
2019-02-28T17:30:29.671Z,78.40
2019-02-28T17:33:34.732Z,78.90
2019-02-28T17:36:39.192Z,80.00
2019-02-28T17:39:44.026Z,80.70
2019-02-28T17:42:49.671Z,81.40
2019-02-28T17:45:55.080Z,82.60
2019-02-28T17:49:26.389Z,83.50
2019-02-28T17:52:59.754Z,84.30
2019-02-28T17:56:30.990Z,85.10
2019-02-28T17:59:59.442Z,85.60
2019-02-28T18:03:26.118Z,86.40
2019-02-28T18:06:52.239Z,87.80
2019-02-28T18:10:13.266Z,89.70
2019-02-28T18:13:43.084Z,90.20
2019-02-28T18:17:21.294Z,90.60
2019-02-28T18:21:00.716Z,90.90
2019-02-28T18:24:27.808Z,91.20
2019-02-28T18:28:03.481Z,91.50
2019-02-28T18:31:12.994Z,91.90
2019-02-28T18:34:20.535Z,92.00
2019-02-28T18:37:24.506Z,92.10
2019-02-28T18:40:29.143Z,92.30
2019-02-28T18:43:33.587Z,92.30
2019-02-28T18:46:38.053Z,92.10
2019-02-28T18:49:42.503Z,92.10
2019-02-28T18:52:47.239Z,92.10
2019-02-28T18:55:51.971Z,92.10
2019-02-28T18:58:56.704Z,92.10
2019-02-28T19:02:01.151Z,92.10
2019-02-28T19:05:07.256Z,92.00
2019-02-28T19:08:11.803Z,92.10
2019-02-28T19:11:16.352Z,92.10
2019-02-28T19:14:20.789Z,92.10
2019-02-28T19:17:25.496Z,92.30
2019-02-28T19:20:29.931Z,92.30
2019-02-28T19:23:34.665Z,92.40
2019-02-28T19:26:39.379Z,92.50
2019-02-28T19:29:43.811Z,92.50
2019-02-28T19:32:48.271Z,92.50
2019-02-28T19:35:52.968Z,92.60
2019-02-28T19:38:57.419Z,92.70
2019-02-28T19:42:02.240Z,92.80
2019-02-28T19:45:38.291Z,92.90
2019-02-28T19:48:42.744Z,92.90
2019-02-28T19:51:47.204Z,92.80
2019-02-28T19:54:51.640Z,92.70
2019-02-28T19:57:56.388Z,92.50
2019-02-28T20:01:00.829Z,92.30
2019-02-28T20:04:05.639Z,92.10
2019-02-28T20:07:10.476Z,92.20
2019-02-28T20:10:18.062Z,92.00
2019-02-28T20:13:22.797Z,91.90
2019-02-28T20:16:27.535Z,91.90
2019-02-28T20:19:31.973Z,91.70
2019-02-28T20:22:36.493Z,91.70
2019-02-28T20:25:40.929Z,91.50
2019-02-28T20:28:45.865Z,91.40
2019-02-28T20:31:50.571Z,91.20
2019-02-28T20:34:55.304Z,91.40
2019-02-28T20:38:00.034Z,91.20
2019-02-28T20:41:04.867Z,90.90
2019-02-28T20:44:09.327Z,90.70
2019-02-28T20:47:14.022Z,90.60
2019-02-28T20:50:23.556Z,90.60
2019-02-28T20:53:27.998Z,90.30
2019-02-28T20:56:32.439Z,90.20
2019-02-28T20:59:36.894Z,90.30
2019-02-28T21:02:41.352Z,90.30
2019-02-28T21:05:45.867Z,90.20
2019-02-28T21:08:50.615Z,90.20
2019-02-28T21:11:55.059Z,90.10
2019-02-28T21:15:01.322Z,90.00
2019-02-28T21:18:06.446Z,90.00
2019-02-28T21:21:11.205Z,90.10
2019-02-28T21:24:15.628Z,89.70
2019-02-28T21:27:20.073Z,89.40
2019-02-28T21:30:27.314Z,89.50
2019-02-28T21:33:31.766Z,89.60
2019-02-28T21:36:36.212Z,89.90
2019-02-28T21:39:40.658Z,89.70
2019-02-28T21:42:45.096Z,89.90
2019-02-28T21:45:49.559Z,89.70
2019-02-28T21:48:54.266Z,89.70
2019-02-28T21:51:58.995Z,90.10
2019-02-28T21:55:04.318Z,90.10
2019-02-28T21:58:09.073Z,90.10
2019-02-28T22:01:13.512Z,90.20
2019-02-28T22:04:17.957Z,90.40
2019-02-28T22:07:22.754Z,90.50
2019-02-28T22:10:27.211Z,90.60
2019-02-28T22:13:32.007Z,90.60
2019-02-28T22:16:36.739Z,90.60
2019-02-28T22:19:41.187Z,90.70
2019-02-28T22:22:46.000Z,90.80
2019-02-28T22:25:50.729Z,91.10
2019-02-28T22:28:55.177Z,91.30
2019-02-28T22:32:07.577Z,91.70
2019-02-28T22:35:14.037Z,91.80
2019-02-28T22:38:18.483Z,92.00
2019-02-28T22:41:23.188Z,92.10
2019-02-28T22:44:27.635Z,92.30
2019-02-28T22:47:32.073Z,92.60
2019-02-28T22:50:36.519Z,92.60
2019-02-28T22:53:41.294Z,92.70
2019-02-28T22:56:46.572Z,92.70
2019-02-28T22:59:51.019Z,92.90
2019-02-28T23:02:55.461Z,93.10
2019-02-28T23:05:59.977Z,93.20
2019-02-28T23:09:05.270Z,93.30
2019-02-28T23:12:09.981Z,93.50
2019-02-28T23:15:14.730Z,93.60
2019-02-28T23:18:19.177Z,93.60
2019-02-28T23:21:23.618Z,94.10
2019-02-28T23:24:28.090Z,94.90
2019-02-28T23:27:32.812Z,95.20
2019-02-28T23:30:57.108Z,95.20
2019-02-28T23:34:14.486Z,95.10
2019-02-28T23:37:19.267Z,95.20
2019-02-28T23:40:23.703Z,95.30
2019-02-28T23:43:28.425Z,95.30
2019-02-28T23:46:33.156Z,95.60
2019-02-28T23:49:37.590Z,96.40
2019-02-28T23:52:42.040Z,97.10
2019-02-28T23:55:46.530Z,97.70
2019-02-28T23:58:51.262Z,98.30
